Time;durP1;ratioP1;P1;durP2;ratioP2;P2;SDS_P1;SDS_P2;PMS_P1;PMS_P2;Temp;Humidity;BMP_temperature;BMP_pressure;BME280_temperature;BME280_humidity;BME280_pressure;Samples;Min_cycle;Max_cycle;Signal;HPM_P1;HPM_P2
2022/03/18 00:02:03;;;;;;;;;;;;;;;;;;5117448;28;19920;-74
2022/03/18 00:04:28;;;;;;;;;;;;;;;;;;5116522;28;19922;-74
2022/03/18 00:06:54;;;;;;;;;;;;;;;;;;5116783;28;19912;-74
2022/03/18 00:09:19;;;;;;;;;;;;;;;;;;5118264;27;19920;-74
2022/03/18 00:11:45;;;;;;;;;;;;;;;;;;5116589;28;19972;-74
2022/03/18 00:14:10;;;;;;;;;;;;;;;;;;5117659;28;19923;-74
2022/03/18 00:16:36;;;;;;;;;;;;;;;;;;5117378;28;20262;-74
2022/03/18 00:19:01;;;;;;;;;;;;;;;;;;5117841;28;20010;-74
2022/03/18 00:21:27;;;;;;;;;;;;;;;;;;5117553;28;19976;-74
2022/03/18 00:23:52;;;;;;;;;;;;;;;;;;5118134;28;19915;-74
2022/03/18 00:26:18;;;;;;;;;;;;;;;;;;5117668;27;19955;-74
2022/03/18 00:28:43;;;;;;;;;;;;;;;;;;5117857;28;20022;-74
2022/03/18 00:31:09;;;;;;;;;;;;;;;;;;5115516;28;20475;-74
2022/03/18 00:33:34;;;;;;;;;;;;;;;;;;5113782;27;19927;-74
2022/03/18 00:36:01;;;;;;;;;;;;;;;;;;5113539;28;20023;-74
2022/03/18 00:38:29;;;;;;;;;;;;;;;;;;5114402;27;20304;-74
2022/03/18 00:40:56;;;;;;;;;;;;;;;;;;5114344;28;19930;-74
2022/03/18 00:43:22;;;;;;;;;;;;;;;;;;5114118;27;20006;-74
2022/03/18 00:45:47;;;;;;;;;;;;;;;;;;5114360;28;19919;-74
2022/03/18 00:53:40;;;;;;;;;;;;;;;;;;5112752;28;19927;-74
2022/03/18 00:56:06;;;;;;;;;;;;;;;;;;5114082;28;19919;-74
2022/03/18 00:58:31;;;;;;;;;;;;;;;;;;5118464;28;19923;-74
2022/03/18 01:00:56;;;;;;;;;;;;;;;;;;5118649;28;19927;-74
2022/03/18 01:03:22;;;;;;;;;;;;;;;;;;5117668;28;20327;-74
2022/03/18 01:05:47;;;;;;;;;;;;;;;;;;5118556;28;19922;-74
2022/03/18 01:08:12;;;;;;;;;;;;;;;;;;5117815;28;19965;-74
2022/03/18 01:10:38;;;;;;;;;;;;;;;;;;5118866;28;19923;-74
2022/03/18 01:13:03;;;;;;;;;;;;;;;;;;5117537;28;20424;-74
2022/03/18 01:15:29;;;;;;;;;;;;;;;;;;5118835;28;19916;-74
2022/03/18 01:17:55;;;;;;;;;;;;;;;;;;5118966;27;20006;-75
2022/03/18 01:20:21;;;;;;;;;;;;;;;;;;5118826;28;19921;-74
2022/03/18 01:22:46;;;;;;;;;;;;;;;;;;5118725;28;20499;-74
2022/03/18 01:25:11;;;;;;;;;;;;;;;;;;5118281;27;19922;-74
2022/03/18 01:27:37;;;;;;;;;;;;;;;;;;5119307;28;19916;-74
2022/03/18 01:30:02;;;;;;;;;;;;;;;;;;5118774;28;19919;-74
2022/03/18 01:32:28;;;;;;;;;;;;;;;;;;5118790;28;19915;-74
2022/03/18 01:34:54;;;;;;;;;;;;;;;;;;5118607;27;19920;-74
2022/03/18 01:37:19;;;;;;;;;;;;;;;;;;5119042;28;19916;-74
2022/03/18 01:39:44;;;;;;;;;;;;;;;;;;5117478;28;19984;-74
2022/03/18 01:42:10;;;;;;;;;;;;;;;;;;5117677;28;19920;-74
2022/03/18 01:44:42;;;;;;;;;;;;;;;;;;5118846;28;20258;-74
2022/03/18 01:47:10;;;;;;;;;;;;;;;;;;5118677;28;19916;-74
2022/03/18 01:49:36;;;;;;;;;;;;;;;;;;5118072;28;20357;-74
2022/03/18 01:52:01;;;;;;;;;;;;;;;;;;5118554;28;19923;-74
2022/03/18 01:54:45;;;;;;;;;;;;;;;;;;5118547;27;19920;-74
2022/03/18 01:57:11;;;;;;;;;;;;;;;;;;5118418;28;19916;-74
2022/03/18 01:59:37;;;;;;;;;;;;;;;;;;5117945;28;20384;-74
2022/03/18 02:02:02;;;;;;;;;;;;;;;;;;5118961;28;19916;-74
2022/03/18 02:04:28;;;;;;;;;;;;;;;;;;5118191;28;19915;-74
2022/03/18 02:06:54;;;;;;;;;;;;;;;;;;5118084;28;19940;-74
2022/03/18 02:09:19;;;;;;;;;;;;;;;;;;5117255;27;19926;-74
2022/03/18 02:11:45;;;;;;;;;;;;;;;;;;5118715;27;19949;-74
2022/03/18 02:14:11;;;;;;;;;;;;;;;;;;5117579;28;20365;-74
2022/03/18 02:16:39;;;;;;;;;;;;;;;;;;5115738;28;20170;-74
2022/03/18 02:19:06;;;;;;;;;;;;;;;;;;5116449;28;20293;-74
2022/03/18 02:21:33;;;;;;;;;;;;;;;;;;5115913;28;20269;-74
2022/03/18 02:23:58;;;;;;;;;;;;;;;;;;5117681;28;19967;-74
2022/03/18 02:26:24;;;;;;;;;;;;;;;;;;5117663;28;19923;-74
2022/03/18 02:28:50;;;;;;;;;;;;;;;;;;5117538;28;19916;-75
2022/03/18 02:31:15;;;;;;;;;;;;;;;;;;5118209;28;19923;-74
2022/03/18 02:33:41;;;;;;;;;;;;;;;;;;5117999;28;20377;-74
2022/03/18 02:36:06;;;;;;;;;;;;;;;;;;5118551;28;19923;-74
2022/03/18 02:38:32;;;;;;;;;;;;;;;;;;5118432;28;19947;-74
2022/03/18 02:40:57;;;;;;;;;;;;;;;;;;5117895;27;20362;-74
2022/03/18 02:43:22;;;;;;;;;;;;;;;;;;5117228;28;19920;-74
2022/03/18 02:45:47;;;;;;;;;;;;;;;;;;5117318;28;19994;-74
2022/03/18 02:48:13;;;;;;;;;;;;;;;;;;5117981;28;19922;-74
2022/03/18 02:50:38;;;;;;;;;;;;;;;;;;5117592;28;19912;-74
2022/03/18 02:53:03;;;;;;;;;;;;;;;;;;5116699;28;19920;-74
2022/03/18 02:55:29;;;;;;;;;;;;;;;;;;5118138;28;19965;-74
2022/03/18 02:57:54;;;;;;;;;;;;;;;;;;5118580;28;19920;-74
2022/03/18 03:00:25;;;;;;;;;;;;;;;;;;5118158;27;19966;-74
2022/03/18 03:02:50;;;;;;;;;;;;;;;;;;5117862;28;19920;-74
2022/03/18 03:08:00;;;;;;;;;;;;;;;;;;5117801;28;20199;-74
2022/03/18 03:10:32;;;;;;;;;;;;;;;;;;5117519;27;19957;-74
2022/03/18 03:12:59;;;;;;;;;;;;;;;;;;5117903;28;19923;-74
2022/03/18 03:15:25;;;;;;;;;;;;;;;;;;5116418;28;19934;-74
2022/03/18 03:17:50;;;;;;;;;;;;;;;;;;5116904;28;19920;-74
2022/03/18 03:20:16;;;;;;;;;;;;;;;;;;5116595;28;19916;-74
2022/03/18 03:22:41;;;;;;;;;;;;;;;;;;5117481;28;19916;-74
2022/03/18 03:25:07;;;;;;;;;;;;;;;;;;5117577;28;19927;-74
2022/03/18 03:27:32;;;;;;;;;;;;;;;;;;5117817;28;20394;-74
2022/03/18 03:30:01;;;;;;;;;;;;;;;;;;5117734;28;20048;-74
2022/03/18 03:32:27;;;;;;;;;;;;;;;;;;5117690;28;19919;-74
2022/03/18 03:34:53;;;;;;;;;;;;;;;;;;5117054;28;19920;-74
2022/03/18 03:37:19;;;;;;;;;;;;;;;;;;5117268;28;19973;-74
2022/03/18 03:39:44;;;;;;;;;;;;;;;;;;5117491;28;20327;-74
2022/03/18 03:42:10;;;;;;;;;;;;;;;;;;5117064;28;19959;-74
2022/03/18 03:44:36;;;;;;;;;;;;;;;;;;5117316;28;19922;-74
2022/03/18 03:47:01;;;;;;;;;;;;;;;;;;5115646;28;19922;-74
2022/03/18 03:49:26;;;;;;;;;;;;;;;;;;5114945;28;19916;-74
2022/03/18 03:51:52;;;;;;;;;;;;;;;;;;5114341;28;19916;-74
2022/03/18 03:54:17;;;;;;;;;;;;;;;;;;5114322;28;19919;-74
2022/03/18 03:56:43;;;;;;;;;;;;;;;;;;5114505;28;19968;-74
2022/03/18 03:59:08;;;;;;;;;;;;;;;;;;5115079;28;19923;-74
2022/03/18 04:01:33;;;;;;;;;;;;;;;;;;5114544;28;20006;-74
2022/03/18 04:03:59;;;;;;;;;;;;;;;;;;5115653;27;19916;-74
2022/03/18 04:06:25;;;;;;;;;;;;;;;;;;5115225;28;19915;-74
2022/03/18 04:08:51;;;;;;;;;;;;;;;;;;5115211;28;19955;-74
2022/03/18 04:11:16;;;;;;;;;;;;;;;;;;5113928;28;20376;-74
2022/03/18 04:13:41;;;;;;;;;;;;;;;;;;5115452;28;19919;-74
2022/03/18 04:16:07;;;;;;;;;;;;;;;;;;5114498;28;19962;-74
2022/03/18 04:18:32;;;;;;;;;;;;;;;;;;5115888;28;19915;-74
2022/03/18 04:20:57;;;;;;;;;;;;;;;;;;5114436;28;19920;-74
2022/03/18 04:23:23;;;;;;;;;;;;;;;;;;5115460;28;19916;-74
2022/03/18 04:25:51;;;;;;;;;;;;;;;;;;5115579;28;19923;-74
2022/03/18 04:28:16;;;;;;;;;;;;;;;;;;5113536;28;19916;-74
2022/03/18 04:30:42;;;;;;;;;;;;;;;;;;5115462;27;20498;-74
2022/03/18 04:33:07;;;;;;;;;;;;;;;;;;5113862;28;19930;-74
2022/03/18 04:35:32;;;;;;;;;;;;;;;;;;5115616;28;19920;-74
2022/03/18 04:37:58;;;;;;;;;;;;;;;;;;5115175;28;20365;-74
2022/03/18 04:40:23;;;;;;;;;;;;;;;;;;5114163;28;19915;-74
2022/03/18 04:42:49;;;;;;;;;;;;;;;;;;5115386;28;19930;-74
2022/03/18 04:45:16;;;;;;;;;;;;;;;;;;5114550;28;19916;-74
2022/03/18 04:47:41;;;;;;;;;;;;;;;;;;5114797;28;19916;-74
2022/03/18 04:50:07;;;;;;;;;;;;;;;;;;5114610;28;20281;-74
2022/03/18 04:52:32;;;;;;;;;;;;;;;;;;5113548;28;19941;-74
2022/03/18 04:54:57;;;;;;;;;;;;;;;;;;5114778;28;19919;-74
2022/03/18 04:57:23;;;;;;;;;;;;;;;;;;5115002;28;19939;-74
2022/03/18 04:59:51;;;;;;;;;;;;;;;;;;5096295;28;19923;-74
2022/03/18 05:02:17;;;;;;;;;;;;;;;;;;5097133;28;19954;-74
2022/03/18 05:04:44;;;;;;;;;;;;;;;;;;5113784;28;19916;-74
2022/03/18 05:07:11;;;;;;;;;;;;;;;;;;5114021;28;20403;-74
2022/03/18 05:09:39;;;;;;;;;;;;;;;;;;5115241;28;19996;-74
2022/03/18 05:12:07;;;;;;;;;;;;;;;;;;5115353;28;19967;-74
2022/03/18 05:14:33;;;;;;;;;;;;;;;;;;5114873;28;19919;-74
2022/03/18 05:16:58;;;;;;;;;;;;;;;;;;5115122;28;20369;-74
2022/03/18 05:19:25;;;;;;;;;;;;;;;;;;5113877;28;19937;-74
2022/03/18 05:21:50;;;;;;;;;;;;;;;;;;5111946;28;20424;-74
2022/03/18 05:24:15;;;;;;;;;;;;;;;;;;5114391;28;20265;-74
2022/03/18 05:26:41;;;;;;;;;;;;;;;;;;5113957;28;19961;-74
2022/03/18 05:29:06;;;;;;;;;;;;;;;;;;5113623;28;20022;-74
2022/03/18 05:31:33;;;;;;;;;;;;;;;;;;5111974;28;20385;-74
2022/03/18 05:33:59;;;;;;;;;;;;;;;;;;5113713;28;20373;-74
2022/03/18 05:36:24;;;;;;;;;;;;;;;;;;5113606;28;19916;-74
2022/03/18 05:38:49;;;;;;;;;;;;;;;;;;5113919;28;19973;-74
2022/03/18 05:41:15;;;;;;;;;;;;;;;;;;5113791;28;19912;-75
2022/03/18 05:43:40;;;;;;;;;;;;;;;;;;5115527;28;19920;-74
2022/03/18 05:46:07;;;;;;;;;;;;;;;;;;5117273;28;19963;-74
2022/03/18 05:48:35;;;;;;;;;;;;;;;;;;5116723;28;20403;-74
2022/03/18 05:51:03;;;;;;;;;;;;;;;;;;5117357;28;20277;-74
2022/03/18 05:53:29;;;;;;;;;;;;;;;;;;5116708;28;19915;-74
2022/03/18 05:58:39;;;;;;;;;;;;;;;;;;5117056;28;19939;-73
2022/03/18 06:01:04;;;;;;;;;;;;;;;;;;5117321;28;19915;-74
2022/03/18 06:03:29;;;;;;;;;;;;;;;;;;5117113;28;19919;-74
2022/03/18 06:05:55;;;;;;;;;;;;;;;;;;5117067;28;20012;-74
2022/03/18 06:13:48;;;;;;;;;;;;;;;;;;5116432;28;19973;-74
2022/03/18 06:16:13;;;;;;;;;;;;;;;;;;5116520;28;19954;-74
2022/03/18 06:18:38;;;;;;;;;;;;;;;;;;5117946;28;19916;-74
2022/03/18 06:21:07;;;;;;;;;;;;;;;;;;5117342;28;19916;-75
2022/03/18 06:23:33;;;;;;;;;;;;;;;;;;5118244;28;19916;-75
2022/03/18 06:25:58;;;;;;;;;;;;;;;;;;5117997;28;19915;-75
2022/03/18 06:28:23;;;;;;;;;;;;;;;;;;5117510;28;19963;-75
2022/03/18 06:30:50;;;;;;;;;;;;;;;;;;5117686;28;19969;-75
2022/03/18 06:33:15;;;;;;;;;;;;;;;;;;5116496;28;19923;-75
2022/03/18 06:35:40;;;;;;;;;;;;;;;;;;5117055;28;19919;-75
2022/03/18 06:38:06;;;;;;;;;;;;;;;;;;5115873;28;19916;-75
2022/03/18 06:40:31;;;;;;;;;;;;;;;;;;5098256;28;19920;-75
2022/03/18 06:42:56;;;;;;;;;;;;;;;;;;5115569;28;19916;-75
2022/03/18 06:45:22;;;;;;;;;;;;;;;;;;5116648;28;20401;-75
2022/03/18 06:47:47;;;;;;;;;;;;;;;;;;5116412;28;19911;-75
2022/03/18 06:50:12;;;;;;;;;;;;;;;;;;5116141;28;19916;-75
2022/03/18 06:52:38;;;;;;;;;;;;;;;;;;5115783;28;19923;-75
2022/03/18 06:55:03;;;;;;;;;;;;;;;;;;5113712;28;20004;-75
2022/03/18 06:57:29;;;;;;;;;;;;;;;;;;5114726;28;19916;-75
2022/03/18 06:59:54;;;;;;;;;;;;;;;;;;5116314;28;19960;-76
2022/03/18 07:02:19;;;;;;;;;;;;;;;;;;5116435;28;19926;-75
2022/03/18 07:04:45;;;;;;;;;;;;;;;;;;5117100;28;19916;-76
2022/03/18 07:07:10;;;;;;;;;;;;;;;;;;5116373;28;19955;-76
2022/03/18 07:09:36;;;;;;;;;;;;;;;;;;5115605;28;19916;-76
2022/03/18 07:12:02;;;;;;;;;;;;;;;;;;5115703;28;19923;-76
2022/03/18 07:14:28;;;;;;;;;;;;;;;;;;5120490;28;19991;-77
2022/03/18 07:19:38;;;;;;;;;;;;;;;;;;5119573;28;20005;-77
2022/03/18 07:22:04;;;;;;;;;;;;;;;;;;5119103;28;19911;-76
2022/03/18 07:24:29;;;;;;;;;;;;;;;;;;5116665;27;19916;-77
2022/03/18 07:26:55;;;;;;;;;;;;;;;;;;5115471;28;19916;-76
2022/03/18 07:29:20;;;;;;;;;;;;;;;;;;5115426;28;20098;-77
2022/03/18 07:31:45;;;;;;;;;;;;;;;;;;5114530;28;19920;-74
2022/03/18 07:34:11;;;;;;;;;;;;;;;;;;5115018;28;20434;-75
2022/03/18 07:36:36;;;;;;;;;;;;;;;;;;5114832;28;19951;-74
2022/03/18 07:39:02;;;;;;;;;;;;;;;;;;5115055;28;20292;-74
2022/03/18 07:41:27;;;;;;;;;;;;;;;;;;5115055;28;20010;-74
2022/03/18 07:43:52;;;;;;;;;;;;;;;;;;5114858;27;19916;-74
2022/03/18 07:46:18;;;;;;;;;;;;;;;;;;5114737;28;19915;-74
2022/03/18 07:48:44;;;;;;;;;;;;;;;;;;5114918;28;19998;-75
2022/03/18 07:51:10;;;;;;;;;;;;;;;;;;5114724;28;19974;-74
2022/03/18 07:53:36;;;;;;;;;;;;;;;;;;5114754;28;19958;-76
2022/03/18 07:56:02;;;;;;;;;;;;;;;;;;5113958;28;19915;-77
2022/03/18 07:58:27;;;;;;;;;;;;;;;;;;5114147;27;19962;-77
2022/03/18 08:00:52;;;;;;;;;;;;;;;;;;5114098;28;19955;-78
2022/03/18 08:03:18;;;;;;;;;;;;;;;;;;5115617;28;20506;-76
2022/03/18 08:05:43;;;;;;;;;;;;;;;;;;5114355;28;19915;-77
2022/03/18 08:08:09;;;;;;;;;;;;;;;;;;5114208;28;19920;-76
2022/03/18 08:10:35;;;;;;;;;;;;;;;;;;5114409;28;19916;-75
2022/03/18 08:13:01;;;;;;;;;;;;;;;;;;5113227;28;19919;-75
2022/03/18 08:15:28;;;;;;;;;;;;;;;;;;5113072;28;19920;-75
2022/03/18 08:17:54;;;;;;;;;;;;;;;;;;5114247;28;19916;-76
2022/03/18 08:20:20;;;;;;;;;;;;;;;;;;5114753;28;20010;-76
2022/03/18 08:22:46;;;;;;;;;;;;;;;;;;5114142;28;19915;-76
2022/03/18 08:25:11;;;;;;;;;;;;;;;;;;5114023;28;19916;-78
2022/03/18 08:27:38;;;;;;;;;;;;;;;;;;5115876;28;19960;-80
2022/03/18 08:30:04;;;;;;;;;;;;;;;;;;5115225;27;20389;-76
2022/03/18 08:32:30;;;;;;;;;;;;;;;;;;5114093;28;19920;-77
2022/03/18 08:34:56;;;;;;;;;;;;;;;;;;5113705;28;19919;-76
2022/03/18 08:40:06;;;;;;;;;;;;;;;;;;5114171;28;19916;-76
2022/03/18 08:42:31;;;;;;;;;;;;;;;;;;5113688;27;19960;-77
2022/03/18 08:44:57;;;;;;;;;;;;;;;;;;5112779;28;19963;-75
2022/03/18 08:47:25;;;;;;;;;;;;;;;;;;5113855;28;19919;-75
2022/03/18 08:49:51;;;;;;;;;;;;;;;;;;5114170;28;20407;-75
2022/03/18 08:52:16;;;;;;;;;;;;;;;;;;5114085;28;19916;-75
2022/03/18 08:54:42;;;;;;;;;;;;;;;;;;5113959;28;20314;-75
2022/03/18 08:57:07;;;;;;;;;;;;;;;;;;5113991;28;19915;-75
2022/03/18 08:59:33;;;;;;;;;;;;;;;;;;5114157;28;19912;-76
2022/03/18 09:01:58;;;;;;;;;;;;;;;;;;5114081;28;19916;-76
2022/03/18 09:04:24;;;;;;;;;;;;;;;;;;5113877;28;19920;-75
2022/03/18 09:06:49;;;;;;;;;;;;;;;;;;5112643;28;19961;-75
2022/03/18 09:09:14;;;;;;;;;;;;;;;;;;5112810;28;20372;-75
2022/03/18 09:11:41;;;;;;;;;;;;;;;;;;5113895;28;19920;-75
2022/03/18 09:14:07;;;;;;;;;;;;;;;;;;5111851;28;19923;-75
2022/03/18 09:16:36;;;;;;;;;;;;;;;;;;5113744;28;20383;-76
2022/03/18 09:19:02;;;;;;;;;;;;;;;;;;5116995;28;20379;-76
2022/03/18 09:21:27;;;;;;;;;;;;;;;;;;5117740;28;19920;-76
2022/03/18 09:23:52;;;;;;;;;;;;;;;;;;5117699;28;19967;-78
2022/03/18 09:26:18;;;;;;;;;;;;;;;;;;5117471;28;19969;-76
2022/03/18 09:28:43;;;;;;;;;;;;;;;;;;5117242;28;20384;-76
2022/03/18 09:31:08;;;;;;;;;;;;;;;;;;5117535;27;19927;-76
2022/03/18 09:33:35;;;;;;;;;;;;;;;;;;5116043;28;20453;-76
2022/03/18 09:36:00;;;;;;;;;;;;;;;;;;5116167;28;20482;-77
2022/03/18 09:38:26;;;;;;;;;;;;;;;;;;5117424;28;20006;-76
2022/03/18 09:40:51;;;;;;;;;;;;;;;;;;5117373;28;19978;-76
2022/03/18 09:43:17;;;;;;;;;;;;;;;;;;5117387;28;20037;-76
2022/03/18 09:45:43;;;;;;;;;;;;;;;;;;5117141;28;20020;-76
2022/03/18 09:48:09;;;;;;;;;;;;;;;;;;5117245;28;19919;-75
2022/03/18 09:50:36;;;;;;;;;;;;;;;;;;5116986;28;19915;-75
2022/03/18 09:53:01;;;;;;;;;;;;;;;;;;5117214;27;19943;-76
2022/03/18 09:55:30;;;;;;;;;;;;;;;;;;5117109;28;19920;-76
2022/03/18 09:57:55;;;;;;;;;;;;;;;;;;5116031;28;20014;-76
2022/03/18 10:00:20;;;;;;;;;;;;;;;;;;5116864;28;20341;-75
2022/03/18 10:02:46;;;;;;;;;;;;;;;;;;5116980;28;20285;-75
2022/03/18 10:05:14;;;;;;;;;;;;;;;;;;5116826;28;20018;-76
2022/03/18 10:07:40;;;;;;;;;;;;;;;;;;5116877;27;19916;-76
2022/03/18 10:10:14;;;;;;;;;;;;;;;;;;5116629;27;19922;-75
2022/03/18 10:12:40;;;;;;;;;;;;;;;;;;5116542;27;19915;-78
2022/03/18 10:15:11;;;;;;;;;;;;;;;;;;5116563;28;20030;-77
2022/03/18 10:17:37;;;;;;;;;;;;;;;;;;5115625;28;19969;-77
2022/03/18 10:20:02;;;;;;;;;;;;;;;;;;5116747;28;19915;-77
2022/03/18 10:22:28;;;;;;;;;;;;;;;;;;5115209;28;19923;-78
2022/03/18 10:24:53;;;;;;;;;;;;;;;;;;5116437;28;19915;-77
2022/03/18 10:27:20;;;;;;;;;;;;;;;;;;5116381;28;20259;-77
2022/03/18 10:29:55;;;;;;;;;;;;;;;;;;5115218;27;19916;-77
2022/03/18 10:32:25;;;;;;;;;;;;;;;;;;5116383;27;19924;-76
2022/03/18 10:37:42;;;;;;;;;;;;;;;;;;5116633;28;20015;-77
2022/03/18 10:40:08;;;;;;;;;;;;;;;;;;5121544;27;19916;-80
2022/03/18 10:42:33;;;;;;;;;;;;;;;;;;5118445;27;20412;-82
2022/03/18 10:44:59;;;;;;;;;;;;;;;;;;5117773;28;19938;-82
2022/03/18 10:47:41;;;;;;;;;;;;;;;;;;5121002;28;19912;-82
2022/03/18 10:50:14;;;;;;;;;;;;;;;;;;5120193;28;19959;-82
2022/03/18 10:52:46;;;;;;;;;;;;;;;;;;5116369;28;20006;-83
2022/03/18 10:55:15;;;;;;;;;;;;;;;;;;5111962;28;19924;-82
2022/03/18 10:57:46;;;;;;;;;;;;;;;;;;5113253;28;19920;-81
2022/03/18 11:00:12;;;;;;;;;;;;;;;;;;5112660;28;19916;-79
2022/03/18 11:02:38;;;;;;;;;;;;;;;;;;5093380;28;19926;-80
2022/03/18 11:05:04;;;;;;;;;;;;;;;;;;5112164;28;20430;-80
2022/03/18 11:07:29;;;;;;;;;;;;;;;;;;5111833;28;19915;-79
2022/03/18 11:12:41;;;;;;;;;;;;;;;;;;5109270;28;19999;-84
2022/03/18 11:15:06;;;;;;;;;;;;;;;;;;5118404;28;19919;-78
2022/03/18 11:17:32;;;;;;;;;;;;;;;;;;5118102;28;19943;-78
2022/03/18 11:20:01;;;;;;;;;;;;;;;;;;5117293;28;19955;-76
2022/03/18 11:22:27;;;;;;;;;;;;;;;;;;5119167;28;19915;-78
2022/03/18 11:24:54;;;;;;;;;;;;;;;;;;5116515;28;19976;-77
2022/03/18 11:27:19;;;;;;;;;;;;;;;;;;5119556;28;20362;-80
2022/03/18 11:30:07;;;;;;;;;;;;;;;;;;5120365;28;19915;-79
2022/03/18 11:32:33;;;;;;;;;;;;;;;;;;5116797;28;19920;-74
2022/03/18 11:34:59;;;;;;;;;;;;;;;;;;5117434;28;19920;-78
2022/03/18 11:37:29;;;;;;;;;;;;;;;;;;5119617;27;19915;-78
2022/03/18 11:40:13;;;;;;;;;;;;;;;;;;5113826;28;19958;-76
2022/03/18 11:42:39;;;;;;;;;;;;;;;;;;5113557;28;20454;-75
2022/03/18 11:45:05;;;;;;;;;;;;;;;;;;5114443;28;19916;-75
2022/03/18 11:47:30;;;;;;;;;;;;;;;;;;5114683;28;19942;-75
2022/03/18 11:49:56;;;;;;;;;;;;;;;;;;5116173;28;19915;-76
2022/03/18 11:52:26;;;;;;;;;;;;;;;;;;5116084;28;19916;-76
2022/03/18 11:55:01;;;;;;;;;;;;;;;;;;5098358;28;19924;-75
2022/03/18 11:57:28;;;;;;;;;;;;;;;;;;5113306;28;19923;-76
2022/03/18 11:59:53;;;;;;;;;;;;;;;;;;5114540;28;20010;-75
2022/03/18 12:02:18;;;;;;;;;;;;;;;;;;5113960;28;19998;-76
2022/03/18 12:04:46;;;;;;;;;;;;;;;;;;5113440;28;19916;-75
2022/03/18 12:07:24;;;;;;;;;;;;;;;;;;5113302;28;19923;-76
2022/03/18 12:10:03;;;;;;;;;;;;;;;;;;5114395;28;19919;-76
2022/03/18 12:12:31;;;;;;;;;;;;;;;;;;5114398;28;19916;-75
2022/03/18 12:14:57;;;;;;;;;;;;;;;;;;5114347;28;20338;-76
2022/03/18 12:17:24;;;;;;;;;;;;;;;;;;5114298;28;20010;-75
2022/03/18 12:19:49;;;;;;;;;;;;;;;;;;5113686;28;19919;-75
2022/03/18 12:22:15;;;;;;;;;;;;;;;;;;5114370;28;19915;-75
2022/03/18 12:24:40;;;;;;;;;;;;;;;;;;5112884;28;19942;-76
2022/03/18 12:27:06;;;;;;;;;;;;;;;;;;5114146;28;19916;-76
2022/03/18 12:29:31;;;;;;;;;;;;;;;;;;5113267;28;19978;-76
2022/03/18 12:32:04;;;;;;;;;;;;;;;;;;5113624;28;19920;-75
2022/03/18 12:34:29;;;;;;;;;;;;;;;;;;5113857;28;20054;-75
2022/03/18 12:36:55;;;;;;;;;;;;;;;;;;5114051;28;20034;-75
2022/03/18 12:39:24;;;;;;;;;;;;;;;;;;5114343;28;19977;-76
2022/03/18 12:41:50;;;;;;;;;;;;;;;;;;5112980;28;19919;-75
2022/03/18 12:44:29;;;;;;;;;;;;;;;;;;5114070;28;19930;-75
2022/03/18 12:46:55;;;;;;;;;;;;;;;;;;5113843;28;19916;-74
2022/03/18 12:49:20;;;;;;;;;;;;;;;;;;5114017;28;19942;-75
2022/03/18 12:51:50;;;;;;;;;;;;;;;;;;5114037;28;19916;-75
2022/03/18 12:54:15;;;;;;;;;;;;;;;;;;5117632;28;19946;-75
2022/03/18 12:57:02;;;;;;;;;;;;;;;;;;5116856;28;19926;-75
2022/03/18 12:59:27;;;;;;;;;;;;;;;;;;5117761;28;19916;-75
2022/03/18 13:01:56;;;;;;;;;;;;;;;;;;5117792;28;19916;-75
2022/03/18 13:04:22;;;;;;;;;;;;;;;;;;5118092;28;19970;-75
2022/03/18 13:06:57;;;;;;;;;;;;;;;;;;5117950;28;19915;-74
2022/03/18 13:09:23;;;;;;;;;;;;;;;;;;5118206;28;20014;-74
2022/03/18 13:11:49;;;;;;;;;;;;;;;;;;5117593;27;19916;-74
2022/03/18 13:14:27;;;;;;;;;;;;;;;;;;5117855;28;19971;-74
2022/03/18 13:16:53;;;;;;;;;;;;;;;;;;5117652;28;19984;-74
2022/03/18 13:19:18;;;;;;;;;;;;;;;;;;5117826;28;20345;-74
2022/03/18 13:21:45;;;;;;;;;;;;;;;;;;5117753;28;20281;-74
2022/03/18 13:24:12;;;;;;;;;;;;;;;;;;5117693;27;20365;-74
2022/03/18 13:26:41;;;;;;;;;;;;;;;;;;5117603;28;19915;-74
2022/03/18 13:29:06;;;;;;;;;;;;;;;;;;5117537;28;19916;-74
2022/03/18 13:34:32;;;;;;;;;;;;;;;;;;5117327;28;19955;-74
2022/03/18 13:37:10;;;;;;;;;;;;;;;;;;5117220;28;19916;-74
2022/03/18 13:39:36;;;;;;;;;;;;;;;;;;5117150;28;19923;-74
2022/03/18 13:42:01;;;;;;;;;;;;;;;;;;5117248;27;20049;-74
2022/03/18 13:44:42;;;;;;;;;;;;;;;;;;5115873;28;20373;-74
2022/03/18 13:47:07;;;;;;;;;;;;;;;;;;5117309;28;19916;-74
2022/03/18 13:49:33;;;;;;;;;;;;;;;;;;5116799;28;19916;-74
2022/03/18 13:52:09;;;;;;;;;;;;;;;;;;5116155;27;19922;-74
2022/03/18 13:54:42;;;;;;;;;;;;;;;;;;5116987;27;20297;-74
2022/03/18 13:57:08;;;;;;;;;;;;;;;;;;5117156;28;20002;-74
2022/03/18 13:59:33;;;;;;;;;;;;;;;;;;5117177;28;19962;-74
2022/03/18 14:02:09;;;;;;;;;;;;;;;;;;5116413;28;19919;-74
2022/03/18 14:04:39;;;;;;;;;;;;;;;;;;5116648;28;19922;-74
2022/03/18 14:07:05;;;;;;;;;;;;;;;;;;5115355;28;19985;-74
2022/03/18 14:09:30;;;;;;;;;;;;;;;;;;5115909;28;19998;-74
2022/03/18 14:12:12;;;;;;;;;;;;;;;;;;5116846;28;19915;-74
2022/03/18 14:14:38;;;;;;;;;;;;;;;;;;5116564;28;19923;-74
2022/03/18 14:17:17;;;;;;;;;;;;;;;;;;5116617;28;19915;-74
2022/03/18 14:19:56;;;;;;;;;;;;;;;;;;5116477;28;19916;-74
2022/03/18 14:22:42;;;;;;;;;;;;;;;;;;5116614;28;20011;-74
2022/03/18 14:25:11;;;;;;;;;;;;;;;;;;5116353;28;20018;-74
2022/03/18 14:27:40;;;;;;;;;;;;;;;;;;5116474;28;20412;-74
2022/03/18 14:30:09;;;;;;;;;;;;;;;;;;5116648;28;20003;-74
2022/03/18 14:32:34;;;;;;;;;;;;;;;;;;5116125;28;19926;-74
2022/03/18 14:35:00;;;;;;;;;;;;;;;;;;5116313;28;19919;-74
2022/03/18 14:37:30;;;;;;;;;;;;;;;;;;5114958;28;19924;-75
2022/03/18 14:39:56;;;;;;;;;;;;;;;;;;5116421;28;19954;-76
2022/03/18 14:42:22;;;;;;;;;;;;;;;;;;5114182;27;19977;-75
2022/03/18 14:44:47;;;;;;;;;;;;;;;;;;5116010;28;20384;-75
2022/03/18 14:47:13;;;;;;;;;;;;;;;;;;5114997;28;19915;-75
2022/03/18 14:49:38;;;;;;;;;;;;;;;;;;5116122;28;19915;-75
2022/03/18 14:52:04;;;;;;;;;;;;;;;;;;5115903;28;20358;-75
2022/03/18 14:57:13;;;;;;;;;;;;;;;;;;5115749;28;19916;-75
2022/03/18 14:59:39;;;;;;;;;;;;;;;;;;5115859;28;19985;-75
2022/03/18 15:02:04;;;;;;;;;;;;;;;;;;5115674;28;20006;-75
2022/03/18 15:04:30;;;;;;;;;;;;;;;;;;5115486;28;19920;-75
2022/03/18 15:06:55;;;;;;;;;;;;;;;;;;5115524;28;19916;-75
2022/03/18 15:09:21;;;;;;;;;;;;;;;;;;5111084;28;19926;-75
2022/03/18 15:11:47;;;;;;;;;;;;;;;;;;5104768;28;20006;-75
2022/03/18 15:14:12;;;;;;;;;;;;;;;;;;5104569;28;20015;-75
2022/03/18 15:16:37;;;;;;;;;;;;;;;;;;5103092;28;19916;-75
2022/03/18 15:19:03;;;;;;;;;;;;;;;;;;5105672;27;19915;-75
2022/03/18 15:21:28;;;;;;;;;;;;;;;;;;5104872;28;19923;-75
2022/03/18 15:23:53;;;;;;;;;;;;;;;;;;5103329;28;19916;-75
2022/03/18 15:26:19;;;;;;;;;;;;;;;;;;5105973;28;20365;-75
2022/03/18 15:28:44;;;;;;;;;;;;;;;;;;5104188;28;19916;-75
2022/03/18 15:31:10;;;;;;;;;;;;;;;;;;5104287;28;19961;-75
2022/03/18 15:33:35;;;;;;;;;;;;;;;;;;5087551;28;19920;-75
2022/03/18 15:36:00;;;;;;;;;;;;;;;;;;5103243;28;19942;-75
2022/03/18 15:38:26;;;;;;;;;;;;;;;;;;5104601;28;19920;-75
2022/03/18 15:40:51;;;;;;;;;;;;;;;;;;5104691;28;19923;-75
2022/03/18 15:43:18;;;;;;;;;;;;;;;;;;5101863;28;19970;-75
2022/03/18 15:45:45;;;;;;;;;;;;;;;;;;5104788;28;20324;-75
2022/03/18 15:48:11;;;;;;;;;;;;;;;;;;5104688;28;19973;-75
2022/03/18 15:50:36;;;;;;;;;;;;;;;;;;5101741;28;20337;-75
2022/03/18 15:53:03;;;;;;;;;;;;;;;;;;5104779;28;19916;-75
2022/03/18 15:55:28;;;;;;;;;;;;;;;;;;5104052;28;19927;-75
2022/03/18 15:57:54;;;;;;;;;;;;;;;;;;5102919;27;19911;-75
2022/03/18 16:00:21;;;;;;;;;;;;;;;;;;5107447;28;19916;-75
2022/03/18 16:02:48;;;;;;;;;;;;;;;;;;5114818;28;20029;-74
2022/03/18 16:05:13;;;;;;;;;;;;;;;;;;5114336;28;19920;-74
2022/03/18 16:07:39;;;;;;;;;;;;;;;;;;5114266;28;19923;-74
2022/03/18 16:10:05;;;;;;;;;;;;;;;;;;5114588;28;19961;-74
2022/03/18 16:12:30;;;;;;;;;;;;;;;;;;5113296;28;19920;-74
2022/03/18 16:14:59;;;;;;;;;;;;;;;;;;5110816;28;19927;-74
2022/03/18 16:17:25;;;;;;;;;;;;;;;;;;5114303;27;19919;-73
2022/03/18 16:19:50;;;;;;;;;;;;;;;;;;5114232;28;19922;-74
2022/03/18 16:22:29;;;;;;;;;;;;;;;;;;5105392;28;19970;-75
2022/03/18 16:25:00;;;;;;;;;;;;;;;;;;5103177;28;19916;-74
2022/03/18 16:27:25;;;;;;;;;;;;;;;;;;5102856;28;19923;-75
2022/03/18 16:29:51;;;;;;;;;;;;;;;;;;5104643;28;19919;-75
2022/03/18 16:32:16;;;;;;;;;;;;;;;;;;5102989;28;19921;-75
2022/03/18 16:34:42;;;;;;;;;;;;;;;;;;5103421;28;19964;-74
2022/03/18 16:37:08;;;;;;;;;;;;;;;;;;5104577;28;19925;-75
2022/03/18 16:39:33;;;;;;;;;;;;;;;;;;5102681;28;20380;-74
2022/03/18 16:42:00;;;;;;;;;;;;;;;;;;5101774;28;20121;-74
2022/03/18 16:44:26;;;;;;;;;;;;;;;;;;5102846;28;19939;-74
2022/03/18 16:49:35;;;;;;;;;;;;;;;;;;5102994;28;19916;-75
2022/03/18 16:52:01;;;;;;;;;;;;;;;;;;5104902;28;19927;-75
2022/03/18 16:54:27;;;;;;;;;;;;;;;;;;5104355;28;19927;-75
2022/03/18 16:56:53;;;;;;;;;;;;;;;;;;5102027;28;19995;-75
2022/03/18 16:59:18;;;;;;;;;;;;;;;;;;5103699;28;19915;-75
2022/03/18 17:01:50;;;;;;;;;;;;;;;;;;5102580;28;19923;-75
2022/03/18 17:04:16;;;;;;;;;;;;;;;;;;5101619;28;20332;-75
2022/03/18 17:06:43;;;;;;;;;;;;;;;;;;5103170;28;19974;-75
2022/03/18 17:09:08;;;;;;;;;;;;;;;;;;5103182;28;20431;-75
2022/03/18 17:11:35;;;;;;;;;;;;;;;;;;5102519;28;19942;-74
2022/03/18 17:14:00;;;;;;;;;;;;;;;;;;5103210;28;19923;-75
2022/03/18 17:16:26;;;;;;;;;;;;;;;;;;5102479;28;20007;-75
2022/03/18 17:18:51;;;;;;;;;;;;;;;;;;5104394;28;20010;-75